Time;durP1;ratioP1;P1;durP2;ratioP2;P2;SDS_P1;SDS_P2;PMS_P1;PMS_P2;Temp;Humidity;BMP_temperature;BMP_pressure;BME280_temperature;BME280_humidity;BME280_pressure;Samples;Min_cycle;Max_cycle;Signal;HPM_P1;HPM_P2
2023/07/06 00:01:01;;;;;;;1.92;0.93;;;21.30;63.90;;;;;;5051159;28;20531;-65
2023/07/06 00:03:27;;;;;;;2.00;1.10;;;21.30;63.90;;;;;;5051993;28;20494;-65
2023/07/06 00:05:52;;;;;;;2.83;1.27;;;21.30;63.90;;;;;;5052091;28;20132;-65
2023/07/06 00:08:18;;;;;;;2.17;0.90;;;21.30;63.90;;;;;;5051922;28;20079;-65
2023/07/06 00:10:44;;;;;;;2.50;1.02;;;21.30;63.90;;;;;;5051812;28;20476;-65
2023/07/06 00:13:11;;;;;;;4.15;1.25;;;21.30;63.90;;;;;;5051624;28;20071;-65
2023/07/06 00:15:36;;;;;;;3.20;1.27;;;21.30;63.90;;;;;;5051003;28;20072;-65
2023/07/06 00:18:03;;;;;;;2.75;1.10;;;21.20;63.80;;;;;;5051167;28;20507;-65
2023/07/06 00:20:29;;;;;;;2.55;1.10;;;21.30;63.90;;;;;;5052344;28;20041;-65
2023/07/06 00:22:55;;;;;;;1.75;1.08;;;21.20;63.90;;;;;;5050585;28;20182;-65
2023/07/06 00:25:21;;;;;;;2.42;1.08;;;21.20;63.80;;;;;;5051987;28;20112;-65
2023/07/06 00:27:48;;;;;;;2.38;1.15;;;21.20;63.80;;;;;;5052044;28;20048;-65
2023/07/06 00:30:30;;;;;;;2.90;1.02;;;21.20;63.90;;;;;;5056320;28;20053;-65
2023/07/06 00:32:56;;;;;;;2.10;1.20;;;21.30;63.90;;;;;;5053344;28;20071;-65
2023/07/06 00:35:22;;;;;;;1.98;1.00;;;21.20;63.90;;;;;;5056365;28;20489;-65
2023/07/06 00:37:51;;;;;;;3.65;1.33;;;21.20;63.90;;;;;;5054410;28;20168;-65
2023/07/06 00:40:17;;;;;;;2.53;1.15;;;21.20;63.90;;;;;;5055567;28;20132;-65
2023/07/06 00:42:42;;;;;;;1.67;1.00;;;21.20;63.90;;;;;;5055822;28;20116;-65
2023/07/06 00:45:09;;;;;;;1.80;1.00;;;21.20;63.90;;;;;;5055717;28;20037;-65
2023/07/06 00:47:38;;;;;;;1.92;0.82;;;21.20;63.90;;;;;;5053741;28;20041;-65
2023/07/06 00:50:12;;;;;;;2.50;1.10;;;21.20;63.90;;;;;;5054290;28;20045;-65
2023/07/06 00:52:41;;;;;;;2.85;1.60;;;21.20;63.90;;;;;;5054786;28;20128;-65
2023/07/06 00:55:07;;;;;;;3.05;1.45;;;21.20;63.90;;;;;;5054615;28;20053;-65
2023/07/06 00:57:35;;;;;;;1.70;0.90;;;21.20;63.90;;;;;;5054694;28;20433;-65
2023/07/06 01:00:02;;;;;;;2.58;1.40;;;21.10;63.80;;;;;;5053896;28;20496;-65
2023/07/06 01:02:30;;;;;;;2.85;1.20;;;21.10;63.90;;;;;;5054379;28;20040;-64
2023/07/06 01:04:55;;;;;;;1.95;1.25;;;21.10;63.80;;;;;;5055178;28;20519;-65
2023/07/06 01:07:24;;;;;;;2.28;1.40;;;21.10;63.80;;;;;;5054968;28;20048;-64
2023/07/06 01:09:50;;;;;;;;;;;21.10;63.80;;;;;;5037891;28;20071;-65
2023/07/06 01:12:16;;;;;;;2.55;1.20;;;21.10;63.80;;;;;;5055282;28;19921;-65
2023/07/06 01:14:42;;;;;;;3.10;1.20;;;21.10;63.80;;;;;;5053927;28;20056;-64
2023/07/06 01:17:14;;;;;;;3.13;1.23;;;21.10;63.80;;;;;;5053783;28;20041;-64
2023/07/06 01:19:48;;;;;;;2.67;1.20;;;21.10;63.80;;;;;;5054570;28;20557;-64
2023/07/06 01:22:14;;;;;;;1.58;1.10;;;21.10;63.80;;;;;;5037001;28;20045;-65
2023/07/06 01:25:12;;;;;;;1.77;1.17;;;21.10;63.90;;;;;;5055515;28;20045;-64
2023/07/06 01:28:13;;;;;;;2.58;1.35;;;21.10;63.80;;;;;;5037243;28;20128;-64
2023/07/06 01:30:56;;;;;;;2.60;1.30;;;21.10;63.80;;;;;;5037628;28;20072;-64
2023/07/06 01:33:32;;;;;;;2.63;1.25;;;21.10;63.80;;;;;;5054752;28;20111;-64
2023/07/06 01:36:30;;;;;;;2.40;1.40;;;21.10;63.80;;;;;;5052861;28;20120;-64
2023/07/06 01:39:31;;;;;;;2.45;1.17;;;21.10;63.80;;;;;;5031657;28;20123;-64
2023/07/06 01:42:14;;;;;;;2.05;1.10;;;21.10;63.80;;;;;;4972520;28;20061;-64
2023/07/06 01:44:41;;;;;;;3.58;1.30;;;21.00;63.70;;;;;;5048363;28;20049;-64
2023/07/06 01:47:07;;;;;;;2.03;1.08;;;21.00;63.80;;;;;;5052992;28;20550;-64
2023/07/06 01:49:33;;;;;;;2.25;1.30;;;21.00;63.80;;;;;;5053142;28;20045;-65
2023/07/06 01:52:24;;;;;;;2.65;1.30;;;21.00;63.80;;;;;;5054402;28;20033;-65
2023/07/06 01:55:09;;;;;;;2.42;1.20;;;21.10;63.80;;;;;;5054849;28;20073;-65
2023/07/06 01:57:46;;;;;;;2.28;1.20;;;21.00;63.80;;;;;;5052567;28;20377;-65
2023/07/06 02:00:14;;;;;;;2.33;1.25;;;21.00;63.70;;;;;;5053547;28;20047;-64
2023/07/06 02:02:42;;;;;;;2.60;1.10;;;21.00;63.70;;;;;;5044468;28;20037;-65
2023/07/06 02:05:08;;;;;;;3.10;1.17;;;21.00;63.70;;;;;;5031851;28;20057;-65
2023/07/06 02:07:34;;;;;;;1.92;1.10;;;21.00;63.70;;;;;;5032208;28;20040;-65
2023/07/06 02:10:01;;;;;;;2.78;1.40;;;21.00;63.80;;;;;;5033289;28;20115;-64
2023/07/06 02:12:26;;;;;;;2.15;1.20;;;21.00;63.70;;;;;;5032717;28;20045;-65
2023/07/06 02:14:53;;;;;;;2.42;1.33;;;21.00;63.80;;;;;;5034020;28;20045;-64
2023/07/06 02:17:20;;;;;;;2.08;1.20;;;21.00;63.70;;;;;;5033922;28;20092;-64
2023/07/06 02:19:45;;;;;;;3.13;1.40;;;21.00;63.80;;;;;;5034740;28;20126;-64
2023/07/06 02:22:11;;;;;;;2.45;1.27;;;21.00;63.80;;;;;;5032823;28;20497;-65
2023/07/06 02:24:38;;;;;;;2.08;1.20;;;20.90;63.70;;;;;;5033841;28;20045;-65
2023/07/06 02:27:05;;;;;;;2.47;1.10;;;20.90;63.70;;;;;;5034065;28;20143;-64
2023/07/06 02:29:33;;;;;;;3.10;1.48;;;21.00;63.70;;;;;;5034229;28;20045;-65
2023/07/06 02:31:58;;;;;;;1.95;1.00;;;21.00;63.70;;;;;;5033097;28;20053;-65
2023/07/06 02:34:27;;;;;;;3.13;1.33;;;20.90;63.70;;;;;;5054238;28;20053;-65
2023/07/06 02:36:53;;;;;;;;;;;20.90;63.70;;;;;;5054186;28;20124;-64
2023/07/06 02:39:20;;;;;;;2.28;1.33;;;20.90;63.60;;;;;;5053254;28;19927;-64
2023/07/06 02:41:46;;;;;;;2.92;1.30;;;20.90;63.70;;;;;;5044259;28;20410;-64
2023/07/06 02:44:12;;;;;;;2.85;1.60;;;20.90;63.70;;;;;;5047041;28;20041;-65
2023/07/06 02:46:38;;;;;;;2.50;1.20;;;20.90;63.70;;;;;;5053368;28;20049;-65
2023/07/06 02:49:04;;;;;;;3.17;1.33;;;20.90;63.70;;;;;;5037119;28;20048;-65
2023/07/06 02:51:35;;;;;;;3.22;1.55;;;20.90;63.70;;;;;;5033602;28;20061;-65
2023/07/06 02:54:01;;;;;;;2.35;1.30;;;20.90;63.70;;;;;;5048715;28;20056;-64
2023/07/06 02:56:26;;;;;;;2.53;1.25;;;20.90;63.70;;;;;;5052179;28;20044;-64
2023/07/06 02:58:52;;;;;;;2.85;1.38;;;20.90;63.70;;;;;;5053220;28;20053;-64
2023/07/06 03:01:18;;;;;;;2.72;1.33;;;20.90;63.70;;;;;;5053252;28;20063;-65
2023/07/06 03:03:44;;;;;;;3.13;1.50;;;20.90;63.70;;;;;;5052739;28;20037;-64
2023/07/06 03:06:12;;;;;;;2.53;1.50;;;20.90;63.70;;;;;;5051982;28;20477;-64
2023/07/06 03:08:38;;;;;;;1.95;1.23;;;20.90;64.30;;;;;;5052380;28;20497;-64
2023/07/06 03:11:04;;;;;;;2.85;1.50;;;20.90;63.70;;;;;;5051954;28;20037;-64
2023/07/06 03:13:31;;;;;;;2.17;1.02;;;20.80;63.60;;;;;;5050984;28;20396;-64
2023/07/06 03:15:56;;;;;;;2.25;1.30;;;20.90;63.70;;;;;;5053049;28;20041;-64
2023/07/06 03:18:23;;;;;;;2.65;1.45;;;20.90;63.70;;;;;;5053143;28;20452;-64
2023/07/06 03:20:49;;;;;;;3.15;1.35;;;20.90;63.70;;;;;;5052019;28;20110;-64
2023/07/06 03:23:15;;;;;;;2.83;1.30;;;20.90;63.70;;;;;;5051661;28;20049;-64
2023/07/06 03:25:41;;;;;;;2.00;1.25;;;20.80;63.70;;;;;;5052696;28;20120;-64
2023/07/06 03:28:06;;;;;;;2.75;1.35;;;20.80;63.60;;;;;;5050345;28;20051;-64
2023/07/06 03:30:32;;;;;;;3.72;1.65;;;20.90;63.70;;;;;;5053254;28;20045;-64
2023/07/06 03:32:59;;;;;;;3.15;1.27;;;20.80;63.60;;;;;;5052237;28;20160;-64
2023/07/06 03:35:25;;;;;;;3.00;1.50;;;20.90;63.70;;;;;;5050166;28;20492;-64
2023/07/06 03:37:50;;;;;;;2.60;1.30;;;20.80;63.60;;;;;;5052244;28;20091;-64
2023/07/06 03:40:16;;;;;;;2.20;1.10;;;20.80;63.60;;;;;;5052942;28;20049;-64
2023/07/06 03:42:45;;;;;;;2.17;1.05;;;20.80;63.60;;;;;;5052022;28;20052;-64
2023/07/06 03:45:12;;;;;;;1.95;1.20;;;20.80;63.60;;;;;;5052522;28;20530;-64
2023/07/06 03:47:38;;;;;;;2.92;1.45;;;20.80;63.70;;;;;;5052402;28;20494;-64
2023/07/06 03:50:08;;;;;;;2.20;1.23;;;20.80;63.60;;;;;;5051822;28;20045;-64
2023/07/06 03:52:36;;;;;;;1.75;1.00;;;20.80;63.70;;;;;;5052315;28;20407;-64
2023/07/06 03:55:03;;;;;;;1.70;1.00;;;20.80;63.70;;;;;;5051784;28;20107;-64
2023/07/06 03:57:30;;;;;;;2.20;0.98;;;20.80;63.70;;;;;;5051952;28;20092;-64
2023/07/06 03:59:56;;;;;;;2.53;1.45;;;20.80;63.70;;;;;;5052154;28;20184;-64
2023/07/06 04:02:22;;;;;;;2.55;1.20;;;20.80;63.70;;;;;;5051219;28;20099;-64
2023/07/06 04:04:48;;;;;;;2.03;1.15;;;20.80;63.70;;;;;;5049052;28;20044;-64
2023/07/06 04:07:13;;;;;;;2.10;1.17;;;20.80;63.70;;;;;;5051596;28;20033;-65
2023/07/06 04:09:39;;;;;;;2.67;1.30;;;20.80;63.70;;;;;;5051676;28;20044;-64
2023/07/06 04:12:07;;;;;;;2.65;1.38;;;20.80;63.70;;;;;;5051866;28;20041;-64
2023/07/06 04:14:33;;;;;;;;;;;20.80;63.60;;;;;;5051471;28;20049;-64
2023/07/06 04:16:58;;;;;;;2.38;1.27;;;20.80;63.60;;;;;;5049590;28;20747;-64
2023/07/06 04:19:24;;;;;;;1.90;1.20;;;20.70;63.60;;;;;;5050426;28;20477;-64
2023/07/06 04:21:51;;;;;;;2.95;1.40;;;20.80;63.70;;;;;;5050877;28;20053;-64
2023/07/06 04:24:17;;;;;;;2.47;1.37;;;20.80;63.70;;;;;;5051524;28;20621;-64
2023/07/06 04:26:45;;;;;;;2.42;1.30;;;20.70;63.70;;;;;;5051947;28;20124;-65
2023/07/06 04:29:11;;;;;;;2.33;1.20;;;20.80;63.80;;;;;;5050816;28;20515;-65
2023/07/06 04:31:37;;;;;;;2.22;1.10;;;20.70;63.70;;;;;;5051709;28;20037;-64
2023/07/06 04:34:05;;;;;;;1.77;1.10;;;20.70;63.70;;;;;;5050893;28;20670;-64
2023/07/06 04:36:31;;;;;;;2.13;1.10;;;20.70;63.70;;;;;;5051735;28;20040;-64
2023/07/06 04:39:00;;;;;;;2.70;1.50;;;20.70;63.70;;;;;;5050546;28;20102;-64
2023/07/06 04:41:26;;;;;;;2.78;1.13;;;20.70;63.70;;;;;;5051051;28;20069;-64
2023/07/06 04:43:52;;;;;;;2.15;1.33;;;20.70;63.70;;;;;;5051799;28;20118;-64
2023/07/06 04:46:20;;;;;;;2.67;1.15;;;20.70;63.80;;;;;;5051518;28;20483;-64
2023/07/06 04:48:47;;;;;;;2.63;1.20;;;20.70;63.80;;;;;;5051861;28;20047;-64
2023/07/06 04:51:12;;;;;;;2.10;1.20;;;20.70;63.80;;;;;;5050487;28;20079;-64
2023/07/06 04:53:38;;;;;;;1.88;1.08;;;20.70;63.80;;;;;;5050726;28;20077;-64
2023/07/06 04:56:04;;;;;;;2.42;1.30;;;20.70;63.80;;;;;;5051783;28;20033;-64
2023/07/06 04:58:30;;;;;;;2.00;1.15;;;20.70;63.80;;;;;;5050364;28;20473;-64
2023/07/06 05:00:56;;;;;;;2.22;1.20;;;20.70;63.80;;;;;;5050985;28;20040;-63
2023/07/06 05:03:23;;;;;;;3.55;1.48;;;20.70;63.80;;;;;;5051576;28;20103;-64
2023/07/06 05:05:48;;;;;;;3.00;1.40;;;20.70;63.80;;;;;;5051594;28;20044;-64
2023/07/06 05:08:16;;;;;;;2.05;1.10;;;20.70;63.80;;;;;;5049573;28;20128;-64
2023/07/06 05:10:43;;;;;;;2.10;1.20;;;20.70;63.80;;;;;;5050590;28;20091;-64
2023/07/06 05:13:09;;;;;;;3.03;1.40;;;20.70;63.90;;;;;;5050853;28;20476;-64
2023/07/06 05:15:36;;;;;;;2.55;1.50;;;20.70;63.90;;;;;;5054971;28;20037;-64
2023/07/06 05:18:03;;;;;;;3.45;1.45;;;20.70;63.90;;;;;;5055248;28;20041;-64
2023/07/06 05:20:31;;;;;;;3.10;1.13;;;20.70;64.00;;;;;;5053519;28;20045;-64
2023/07/06 05:22:57;;;;;;;2.30;1.20;;;20.70;64.00;;;;;;5053503;28;20080;-64
2023/07/06 05:25:23;;;;;;;2.05;1.30;;;20.80;64.00;;;;;;5036747;28;20057;-65
2023/07/06 05:27:48;;;;;;;2.00;1.10;;;20.80;64.00;;;;;;5034486;28;20041;-64
2023/07/06 05:30:14;;;;;;;2.25;1.15;;;20.80;64.10;;;;;;5035305;28;20472;-64
2023/07/06 05:32:40;;;;;;;1.58;1.00;;;20.80;64.70;;;;;;5034605;28;20049;-65
2023/07/06 05:35:06;;;;;;;2.33;1.20;;;20.80;64.10;;;;;;5048770;28;20056;-64
2023/07/06 05:37:33;;;;;;;2.58;1.30;;;20.80;64.10;;;;;;5035523;28;20048;-64
2023/07/06 05:39:59;;;;;;;2.70;1.42;;;20.80;64.10;;;;;;5047630;28;20091;-64
2023/07/06 05:42:25;;;;;;;3.15;1.60;;;20.80;64.70;;;;;;5052648;28;20504;-64
2023/07/06 05:44:51;;;;;;;2.88;1.20;;;20.90;64.10;;;;;;5054586;28;20068;-65
2023/07/06 05:47:17;;;;;;;2.78;1.20;;;20.90;64.10;;;;;;5054902;28;20059;-64
2023/07/06 05:49:42;;;;;;;2.33;1.33;;;20.90;64.10;;;;;;5052130;28;20098;-65
2023/07/06 05:52:08;;;;;;;2.33;1.33;;;20.90;64.10;;;;;;5054533;28;20484;-64
2023/07/06 05:54:33;;;;;;;3.67;1.30;;;20.90;64.10;;;;;;5054692;28;20041;-65
2023/07/06 05:57:00;;;;;;;3.70;1.50;;;20.90;64.10;;;;;;5052726;28;20053;-64
2023/07/06 05:59:26;;;;;;;3.92;1.38;;;20.90;64.10;;;;;;5054655;28;20048;-65
2023/07/06 06:01:53;;;;;;;2.38;1.30;;;20.90;64.10;;;;;;5054294;28;20044;-65
2023/07/06 06:04:19;;;;;;;2.25;1.30;;;20.90;64.10;;;;;;5053799;28;20049;-65
2023/07/06 06:06:46;;;;;;;1.77;1.23;;;21.00;64.20;;;;;;5054713;28;20077;-65
2023/07/06 06:09:12;;;;;;;2.63;1.33;;;20.90;64.10;;;;;;5053776;28;20040;-65
2023/07/06 06:11:38;;;;;;;2.20;1.30;;;20.90;64.20;;;;;;5053482;28;20049;-65
2023/07/06 06:14:04;;;;;;;3.20;1.30;;;20.90;64.20;;;;;;5052964;28;20167;-65
2023/07/06 06:16:32;;;;;;;2.25;1.30;;;20.90;64.20;;;;;;5053386;28;20098;-65
2023/07/06 06:19:01;;;;;;;1.63;1.20;;;20.90;64.20;;;;;;5052527;28;20499;-66
2023/07/06 06:21:29;;;;;;;2.88;1.13;;;21.00;64.30;;;;;;5052884;28;20094;-65
2023/07/06 06:23:58;;;;;;;;;;;20.90;64.30;;;;;;5053177;28;20388;-65
2023/07/06 06:26:24;;;;;;;2.05;1.23;;;20.90;64.20;;;;;;5051846;28;19925;-65
2023/07/06 06:28:50;;;;;;;3.13;1.20;;;20.90;64.30;;;;;;5053334;28;20372;-65
2023/07/06 06:31:15;;;;;;;1.77;1.00;;;20.90;64.30;;;;;;5053136;28;20041;-65
2023/07/06 06:33:41;;;;;;;3.20;1.63;;;20.90;64.30;;;;;;5053266;28;20071;-65
2023/07/06 06:36:08;;;;;;;3.13;1.30;;;20.90;64.30;;;;;;5052843;28;20178;-67
2023/07/06 06:38:34;;;;;;;4.75;1.38;;;20.90;64.30;;;;;;5053204;28;20506;-66
2023/07/06 06:41:07;;;;;;;4.30;1.20;;;20.90;64.40;;;;;;5033390;28;20056;-66
2023/07/06 06:43:38;;;;;;;4.78;1.23;;;21.00;64.50;;;;;;5038103;28;20041;-67
2023/07/06 06:46:05;;;;;;;2.42;1.30;;;21.00;64.50;;;;;;5050429;28;20045;-68
2023/07/06 06:48:32;;;;;;;2.28;1.30;;;21.00;64.50;;;;;;5048175;28;20041;-67
2023/07/06 06:50:58;;;;;;;3.45;1.55;;;21.00;64.60;;;;;;5043920;28;20481;-68
2023/07/06 06:53:24;;;;;;;4.55;1.50;;;21.00;64.70;;;;;;5051681;28;20404;-68
2023/07/06 06:55:50;;;;;;;5.57;1.35;;;21.00;64.70;;;;;;5032889;28;20499;-68
2023/07/06 06:58:16;;;;;;;4.78;1.30;;;21.00;64.80;;;;;;5033252;28;20569;-68
2023/07/06 07:00:44;;;;;;;3.22;1.40;;;21.00;64.80;;;;;;5032883;28;20037;-68
2023/07/06 07:03:11;;;;;;;5.88;1.50;;;21.00;64.80;;;;;;5033350;28;20045;-67
2023/07/06 07:05:37;;;;;;;4.70;1.60;;;21.00;64.80;;;;;;5032544;28;20120;-66
2023/07/06 07:08:03;;;;;;;3.75;1.23;;;21.10;64.90;;;;;;5031403;28;20121;-66
2023/07/06 07:10:29;;;;;;;6.13;1.67;;;21.10;64.90;;;;;;5031740;28;20042;-64
2023/07/06 07:12:55;;;;;;;8.13;1.83;;;21.10;65.50;;;;;;5051126;28;20033;-66
2023/07/06 07:15:20;;;;;;;7.85;1.70;;;21.10;65.00;;;;;;5039961;28;20544;-65
2023/07/06 07:17:46;;;;;;;4.03;1.45;;;21.10;65.00;;;;;;5032983;28;20049;-65
2023/07/06 07:20:13;;;;;;;6.63;1.40;;;21.10;65.10;;;;;;5032201;28;20049;-66
2023/07/06 07:22:39;;;;;;;4.22;1.80;;;21.10;65.20;;;;;;5032561;28;20076;-66
2023/07/06 07:25:06;;;;;;;3.70;1.40;;;21.20;65.30;;;;;;5033028;28;20072;-69
2023/07/06 07:27:34;;;;;;;4.82;1.58;;;21.20;65.40;;;;;;5032387;28;20057;-68
2023/07/06 07:30:04;;;;;;;4.57;1.42;;;21.20;65.40;;;;;;5032142;28;20053;-69
2023/07/06 07:32:30;;;;;;;5.65;1.38;;;21.20;65.50;;;;;;5050765;28;20045;-67
2023/07/06 07:34:57;;;;;;;4.18;1.40;;;21.20;65.50;;;;;;5049036;28;20094;-66
2023/07/06 07:37:23;;;;;;;4.93;1.60;;;21.20;65.60;;;;;;5051055;28;20069;-67
2023/07/06 07:39:49;;;;;;;3.85;1.60;;;21.20;65.60;;;;;;5050538;28;20072;-67
2023/07/06 07:42:16;;;;;;;6.57;1.83;;;21.20;65.60;;;;;;5051715;28;20045;-66
2023/07/06 07:44:44;;;;;;;3.83;1.77;;;21.20;65.50;;;;;;5052426;28;20045;-67
2023/07/06 07:47:13;;;;;;;5.05;1.50;;;21.30;65.60;;;;;;5050911;28;20072;-65
2023/07/06 07:49:39;;;;;;;8.98;2.00;;;21.30;65.60;;;;;;5050189;28;20041;-64
2023/07/06 07:52:05;;;;;;;4.22;1.60;;;21.30;65.60;;;;;;5051675;28;20049;-65
2023/07/06 07:54:31;;;;;;;5.15;1.70;;;21.40;65.70;;;;;;5052047;28;20107;-64
2023/07/06 07:56:57;;;;;;;5.03;1.83;;;21.40;65.60;;;;;;5049734;28;20130;-64
2023/07/06 07:59:25;;;;;;;3.92;1.30;;;21.40;65.50;;;;;;5052223;28;20171;-65
2023/07/06 08:01:52;;;;;;;7.30;1.80;;;21.40;65.50;;;;;;5051413;28;20128;-66
2023/07/06 08:04:18;;;;;;;5.40;1.80;;;21.40;65.50;;;;;;5052005;28;20049;-67
2023/07/06 08:06:44;;;;;;;4.40;1.40;;;21.40;65.50;;;;;;5051911;28;20068;-67
2023/07/06 08:09:09;;;;;;;4.30;1.40;;;21.40;65.60;;;;;;5050895;28;20149;-68
2023/07/06 08:11:38;;;;;;;6.05;2.00;;;21.40;65.60;;;;;;5052132;28;20037;-68
2023/07/06 08:14:08;;;;;;;3.15;1.50;;;21.40;65.70;;;;;;5051801;28;20073;-67
2023/07/06 08:16:33;;;;;;;7.40;1.55;;;21.40;65.70;;;;;;5050552;28;20496;-69
2023/07/06 08:19:03;;;;;;;3.28;1.52;;;21.40;65.70;;;;;;5051473;28;20045;-69
2023/07/06 08:21:29;;;;;;;3.67;1.50;;;21.40;65.80;;;;;;5051467;28;20430;-69
2023/07/06 08:23:57;;;;;;;3.95;1.48;;;21.40;65.80;;;;;;5051155;28;20116;-68
2023/07/06 08:26:23;;;;;;;5.00;1.70;;;21.50;65.90;;;;;;5050516;28;20128;-68
2023/07/06 08:28:49;;;;;;;5.28;1.60;;;21.40;65.80;;;;;;5051061;28;20052;-68
2023/07/06 08:31:17;;;;;;;4.63;1.90;;;21.50;65.90;;;;;;5049461;28;20041;-68
2023/07/06 08:33:46;;;;;;;4.15;1.60;;;21.50;65.90;;;;;;5051509;28;20056;-68
2023/07/06 08:36:12;;;;;;;4.80;1.60;;;21.50;66.00;;;;;;5051564;28;20465;-68
2023/07/06 08:38:38;;;;;;;4.15;1.67;;;21.50;66.00;;;;;;5044867;28;20067;-68
2023/07/06 08:41:10;;;;;;;6.25;2.70;;;21.50;66.00;;;;;;5033383;28;20400;-68
2023/07/06 08:43:36;;;;;;;2.97;1.42;;;21.50;66.00;;;;;;5014873;28;20068;-68
2023/07/06 08:46:03;;;;;;;3.80;1.63;;;21.50;65.90;;;;;;5042694;28;20049;-68
2023/07/06 08:48:33;;;;;;;4.65;1.45;;;21.50;65.90;;;;;;5051924;28;20049;-68
2023/07/06 08:51:22;;;;;;;5.15;1.45;;;21.50;66.00;;;;;;5052867;28;20068;-68
2023/07/06 08:53:55;;;;;;;5.75;1.90;;;21.50;66.00;;;;;;5016474;28;20382;-66
2023/07/06 08:56:21;;;;;;;4.72;1.75;;;21.60;66.00;;;;;;5050820;28;20037;-66
2023/07/06 08:58:47;;;;;;;3.95;1.60;;;21.60;65.90;;;;;;5053578;28;20084;-68
2023/07/06 09:01:16;;;;;;;7.82;2.00;;;21.60;65.90;;;;;;5037428;28;20092;-65
2023/07/06 09:03:57;;;;;;;3.25;1.70;;;21.60;65.90;;;;;;5054020;28;20053;-66
2023/07/06 09:06:26;;;;;;;3.90;1.63;;;21.60;65.90;;;;;;5053521;28;20037;-67
2023/07/06 09:08:54;;;;;;;2.80;1.58;;;21.60;65.80;;;;;;5052872;28;20048;-66
2023/07/06 09:11:23;;;;;;;4.13;1.77;;;21.60;65.60;;;;;;5048189;28;20045;-65
2023/07/06 09:13:55;;;;;;;3.97;1.63;;;21.60;65.60;;;;;;5052361;28;20052;-66
2023/07/06 09:16:21;;;;;;;4.80;1.70;;;21.70;65.70;;;;;;5050418;28;20063;-66
2023/07/06 09:18:47;;;;;;;6.50;1.88;;;21.70;65.70;;;;;;5042512;28;20049;-69
2023/07/06 09:21:14;;;;;;;6.13;1.98;;;21.70;65.70;;;;;;5051893;28;20041;-66
2023/07/06 09:23:44;;;;;;;3.97;1.63;;;21.80;65.90;;;;;;5045354;28;20095;-67
2023/07/06 09:26:19;;;;;;;4.70;1.83;;;21.80;66.00;;;;;;5050588;28;20037;-68
2023/07/06 09:28:44;;;;;;;7.25;1.95;;;21.80;66.00;;;;;;5051603;28;20072;-66
2023/07/06 09:31:20;;;;;;;3.42;1.50;;;21.80;66.00;;;;;;5051465;28;20079;-68
2023/07/06 09:33:48;;;;;;;4.68;1.70;;;21.80;66.00;;;;;;5049112;28;20056;-67
2023/07/06 09:36:22;;;;;;;2.97;1.60;;;21.90;66.00;;;;;;5052212;28;20076;-67
2023/07/06 09:38:47;;;;;;;5.60;1.70;;;21.90;66.00;;;;;;5045884;28;20122;-68
2023/07/06 09:41:20;;;;;;;3.55;1.75;;;21.90;66.00;;;;;;5051387;28;20500;-67
2023/07/06 09:43:45;;;;;;;3.30;1.50;;;21.90;66.00;;;;;;5052551;28;20041;-67
2023/07/06 09:46:11;;;;;;;4.50;1.75;;;21.90;65.90;;;;;;5052289;28;20040;-67
2023/07/06 09:48:38;;;;;;;7.55;2.03;;;21.90;66.00;;;;;;5052759;28;20044;-67
2023/07/06 09:51:13;;;;;;;4.82;1.88;;;21.90;66.00;;;;;;5052997;28;20550;-66
2023/07/06 09:53:59;;;;;;;3.20;1.85;;;21.90;66.00;;;;;;5034567;28;20048;-66
2023/07/06 09:56:25;;;;;;;5.05;2.00;;;21.90;66.00;;;;;;5026529;28;20120;-66
2023/07/06 09:58:52;;;;;;;3.17;1.70;;;21.90;66.00;;;;;;5052858;28;20128;-68
2023/07/06 10:01:31;;;;;;;3.47;1.40;;;21.90;66.00;;;;;;5042583;28;20457;-69
2023/07/06 10:04:20;;;;;;;5.28;1.77;;;21.90;66.10;;;;;;5053413;28;20558;-66
2023/07/06 10:07:01;;;;;;;8.32;1.85;;;21.90;66.00;;;;;;5038198;28;20128;-66
2023/07/06 10:09:37;;;;;;;5.60;1.60;;;21.90;66.00;;;;;;5033827;28;20091;-66
2023/07/06 10:12:20;;;;;;;4.20;1.58;;;21.90;65.90;;;;;;5032773;28;20049;-66
2023/07/06 10:14:49;;;;;;;3.53;1.40;;;21.80;65.80;;;;;;5032793;28;20084;-66
2023/07/06 10:17:35;;;;;;;4.30;1.50;;;21.90;65.80;;;;;;5033489;28;20508;-66
2023/07/06 10:20:10;;;;;;;6.05;1.80;;;21.80;65.70;;;;;;5016035;28;20042;-66
2023/07/06 10:23:09;;;;;;;6.32;1.63;;;21.80;65.70;;;;;;5033438;28;20125;-66
2023/07/06 10:26:13;;;;;;;4.25;1.70;;;21.80;65.70;;;;;;4999449;28;20045;-67
2023/07/06 10:28:40;;;;;;;4.38;1.77;;;21.80;65.70;;;;;;5034021;28;20052;-66
2023/07/06 10:31:07;;;;;;;4.93;1.75;;;21.80;65.70;;;;;;5022958;28;20053;-65
2023/07/06 10:33:50;;;;;;;4.30;1.70;;;21.80;65.70;;;;;;5052326;28;20053;-66
2023/07/06 10:36:15;;;;;;;5.38;1.90;;;21.90;65.70;;;;;;5035475;28;20146;-66
2023/07/06 10:38:41;;;;;;;4.82;1.95;;;21.90;65.70;;;;;;5034749;28;20095;-66
2023/07/06 10:41:10;;;;;;;6.28;1.65;;;21.80;65.60;;;;;;5044182;28;20041;-66
2023/07/06 10:43:38;;;;;;;7.13;2.10;;;21.90;65.60;;;;;;5031077;28;20095;-67
2023/07/06 10:46:33;;;;;;;3.13;1.70;;;21.90;65.60;;;;;;5040227;28;20465;-65
2023/07/06 10:49:20;;;;;;;4.18;1.83;;;21.90;65.50;;;;;;5051898;28;20037;-67
2023/07/06 10:51:57;;;;;;;4.13;1.98;;;21.90;65.50;;;;;;5050318;28;20044;-61
2023/07/06 10:54:28;;;;;;;5.75;1.60;;;21.90;65.40;;;;;;5051696;28;20033;-67
2023/07/06 10:57:05;;;;;;;5.20;1.90;;;21.90;65.50;;;;;;5036350;28;20090;-66
2023/07/06 10:59:44;;;;;;;5.82;1.70;;;22.00;65.50;;;;;;5049394;28;20037;-66
2023/07/06 11:02:45;;;;;;;4.75;1.40;;;22.00;65.50;;;;;;5036582;28;20045;-67
2023/07/06 11:05:16;;;;;;;3.97;1.90;;;22.00;65.40;;;;;;5028372;28;20053;-67
2023/07/06 11:07:44;;;;;;;4.63;2.10;;;21.90;65.40;;;;;;5052192;28;20127;-67
2023/07/06 11:10:23;;;;;;;4.95;2.03;;;21.90;65.40;;;;;;5051479;28;20476;-66
2023/07/06 11:13:02;;;;;;;6.28;1.80;;;21.90;65.40;;;;;;5050640;28;20068;-67
2023/07/06 11:15:40;;;;;;;5.28;2.47;;;21.90;65.40;;;;;;5050477;28;20048;-66
2023/07/06 11:18:21;;;;;;;8.10;2.30;;;21.90;65.40;;;;;;5042506;28;20229;-67
2023/07/06 11:21:16;;;;;;;6.55;2.20;;;21.90;65.50;;;;;;5048111;28;20059;-67
2023/07/06 11:23:50;;;;;;;9.38;2.53;;;21.90;65.50;;;;;;5022453;28;20124;-67
2023/07/06 11:26:54;;;;;;;8.50;2.63;;;21.90;65.50;;;;;;5015716;28;20452;-67
2023/07/06 11:29:22;;;;;;;6.85;2.80;;;21.90;65.50;;;;;;5030500;28;20405;-67
2023/07/06 11:31:47;;;;;;;6.93;2.65;;;21.90;65.60;;;;;;5032410;28;20045;-67
2023/07/06 11:34:34;;;;;;;8.43;2.55;;;21.90;65.60;;;;;;5032276;28;20337;-67
2023/07/06 11:37:20;;;;;;;9.70;2.67;;;21.90;65.60;;;;;;5044149;28;20045;-67
2023/07/06 11:40:06;;;;;;;10.05;3.17;;;21.90;65.60;;;;;;5050515;28;20037;-67
2023/07/06 11:42:44;;;;;;;10.05;2.60;;;21.90;65.50;;;;;;5052408;28;20123;-67
2023/07/06 11:45:27;;;;;;;6.43;2.22;;;21.90;65.50;;;;;;5052183;28;20119;-67
2023/07/06 11:48:21;;;;;;;10.80;2.60;;;21.90;65.50;;;;;;5050239;28;20040;-67
2023/07/06 11:50:48;;;;;;;6.70;2.30;;;21.90;65.50;;;;;;5052131;28;20040;-67
2023/07/06 11:53:57;;;;;;;7.25;2.30;;;21.90;65.40;;;;;;5051159;28;20095;-67
2023/07/06 11:56:08;;;;;;;8.15;2.78;;;21.90;65.40;;;;;;5036811;28;20055;-67
2023/07/06 11:58:45;;;;;;;7.32;2.78;;;21.90;65.40;;;;;;5051783;28;20178;-67
2023/07/06 12:01:20;;;;;;;7.00;2.40;;;22.00;65.40;;;;;;5049951;28;20041;-67
2023/07/06 12:03:49;;;;;;;8.60;2.40;;;22.00;65.30;;;;;;5052224;28;20075;-67
2023/07/06 12:06:17;;;;;;;10.98;3.05;;;22.00;65.30;;;;;;5034236;28;20044;-67
2023/07/06 12:08:44;;;;;;;7.45;3.28;;;22.00;65.20;;;;;;5051570;28;20044;-67
2023/07/06 12:11:15;;;;;;;8.25;2.55;;;22.00;65.20;;;;;;5050463;28;20041;-67
2023/07/06 12:13:45;;;;;;;6.45;2.50;;;22.00;65.10;;;;;;5047062;28;20045;-67
2023/07/06 12:16:17;;;;;;;7.97;2.20;;;22.00;65.10;;;;;;5038527;28;20048;-67
2023/07/06 12:18:44;;;;;;;7.72;2.78;;;22.00;65.10;;;;;;5031221;28;20081;-67
2023/07/06 12:21:26;;;;;;;5.75;2.40;;;22.10;65.10;;;;;;5030316;28;20366;-67
2023/07/06 12:23:52;;;;;;;5.60;2.05;;;22.10;65.00;;;;;;5030036;28;20111;-67
2023/07/06 12:26:18;;;;;;;6.38;2.60;;;22.10;65.00;;;;;;5036485;28;20042;-67
2023/07/06 12:28:46;;;;;;;6.78;2.15;;;22.10;64.90;;;;;;5035119;28;20042;-67
2023/07/06 12:31:12;;;;;;;7.82;2.25;;;22.10;64.90;;;;;;5037548;28;20045;-67
2023/07/06 12:33:38;;;;;;;5.93;2.40;;;22.10;64.80;;;;;;5037666;28;20148;-67
2023/07/06 12:36:05;;;;;;;6.18;2.30;;;22.20;64.80;;;;;;5053286;28;20048;-67
2023/07/06 12:38:30;;;;;;;6.45;2.03;;;22.20;64.80;;;;;;5056170;28;20051;-67
2023/07/06 12:41:14;;;;;;;5.30;2.40;;;22.20;64.80;;;;;;5037891;28;20135;-67
2023/07/06 12:43:39;;;;;;;5.97;2.00;;;22.20;64.70;;;;;;5055303;28;20067;-67
2023/07/06 12:46:05;;;;;;;4.60;2.20;;;22.20;64.70;;;;;;5037450;28;20045;-67
2023/07/06 12:48:33;;;;;;;4.55;2.20;;;22.20;64.60;;;;;;5054869;28;20083;-67
2023/07/06 12:50:59;;;;;;;5.63;2.13;;;22.20;64.60;;;;;;5054881;28;20041;-67
2023/07/06 12:53:29;;;;;;;6.95;2.10;;;22.20;64.60;;;;;;5053953;28;20052;-67
2023/07/06 12:56:00;;;;;;;3.97;1.88;;;22.30;64.60;;;;;;5055453;28;20037;-67
2023/07/06 12:58:28;;;;;;;7.95;2.22;;;22.20;64.50;;;;;;5054531;28;20036;-67
2023/07/06 13:01:32;;;;;;;5.47;1.95;;;22.30;64.60;;;;;;5055428;28;20049;-67